Time;durP1;ratioP1;P1;durP2;ratioP2;P2;SDS_P1;SDS_P2;PMS_P1;PMS_P2;Temp;Humidity;BMP_temperature;BMP_pressure;BME280_temperature;BME280_humidity;BME280_pressure;Samples;Min_cycle;Max_cycle;Signal;HPM_P1;HPM_P2
2021/05/20 04:12:57;;;;;;;0.70;0.70;;;12.80;99.90;;;;;;4956879;28;20252;-76
2021/05/20 04:15:25;;;;;;;0.70;0.70;;;12.70;99.90;;;;;;4958333;29;20205;-76
2021/05/20 04:17:52;;;;;;;0.70;0.70;;;12.60;99.90;;;;;;4958627;29;20615;-76
2021/05/20 04:20:19;;;;;;;0.70;0.70;;;12.80;99.90;;;;;;4960080;29;20201;-77
2021/05/20 04:22:47;;;;;;;0.70;0.70;;;12.70;99.90;;;;;;4961019;29;20206;-76
2021/05/20 04:25:14;;;;;;;0.60;0.60;;;12.80;99.90;;;;;;4960856;29;20619;-76
2021/05/20 04:27:41;;;;;;;0.70;0.70;;;12.70;99.90;;;;;;4961910;29;20264;-76
2021/05/20 04:30:11;;;;;;;0.60;0.60;;;12.70;99.90;;;;;;4963799;28;20257;-76
2021/05/20 04:32:38;;;;;;;0.70;0.70;;;12.80;99.90;;;;;;4956314;28;20209;-76
2021/05/20 04:35:07;;;;;;;0.70;0.70;;;12.80;99.90;;;;;;4953426;29;20202;-76
2021/05/20 04:37:34;;;;;;;0.70;0.70;;;12.80;99.90;;;;;;4959389;28;20205;-76
2021/05/20 04:40:02;;;;;;;0.70;0.70;;;12.80;99.90;;;;;;4963186;28;20729;-77
2021/05/20 04:42:29;;;;;;;0.60;0.60;;;12.90;99.90;;;;;;4957603;28;20280;-77
2021/05/20 04:44:57;;;;;;;0.70;0.70;;;12.80;99.90;;;;;;4947283;29;20269;-76
2021/05/20 04:47:25;;;;;;;0.80;0.80;;;12.90;99.90;;;;;;4946917;29;20193;-77
2021/05/20 04:49:53;;;;;;;0.60;0.60;;;12.90;99.90;;;;;;4950845;29;20248;-76
2021/05/20 04:52:20;;;;;;;0.60;0.60;;;12.90;99.90;;;;;;4956544;28;20662;-75
2021/05/20 04:54:48;;;;;;;0.70;0.70;;;12.90;99.90;;;;;;4956335;28;20209;-76
2021/05/20 04:57:15;;;;;;;0.60;0.60;;;12.80;99.90;;;;;;4956611;28;20210;-77
2021/05/20 04:59:43;;;;;;;0.60;0.60;;;12.80;99.90;;;;;;4957293;28;20639;-76
2021/05/20 05:02:10;;;;;;;0.70;0.70;;;12.80;99.90;;;;;;4956408;28;20225;-77
2021/05/20 05:04:38;;;;;;;0.70;0.70;;;12.90;99.90;;;;;;4951476;28;20198;-76
2021/05/20 05:07:05;;;;;;;0.70;0.70;;;12.90;99.90;;;;;;4947829;28;20202;-76
2021/05/20 05:09:33;;;;;;;0.70;0.70;;;12.90;99.90;;;;;;4956623;28;20304;-77
2021/05/20 05:12:00;;;;;;;0.50;0.50;;;13.00;99.90;;;;;;4950598;28;20230;-77
2021/05/20 05:14:29;;;;;;;0.60;0.60;;;13.20;99.90;;;;;;4937031;29;20258;-76
2021/05/20 05:16:56;;;;;;;0.50;0.50;;;13.30;99.90;;;;;;4937271;29;20244;-76
2021/05/20 05:19:24;;;;;;;0.60;0.60;;;13.50;99.90;;;;;;4937249;29;20261;-76
2021/05/20 05:21:52;;;;;;;0.60;0.60;;;13.60;99.90;;;;;;4935701;29;20294;-75
2021/05/20 05:24:19;;;;;;;0.60;0.60;;;13.50;99.90;;;;;;4936918;29;20262;-76
2021/05/20 05:26:46;;;;;;;0.63;0.63;;;13.60;99.90;;;;;;4937186;29;20671;-75
2021/05/20 05:29:14;;;;;;;0.60;0.60;;;13.60;99.90;;;;;;4937265;29;20206;-76
2021/05/20 05:31:41;;;;;;;0.55;0.55;;;13.60;99.90;;;;;;4937324;29;20229;-75
2021/05/20 05:34:09;;;;;;;0.70;0.70;;;13.60;99.90;;;;;;4940952;29;20659;-75
2021/05/20 05:36:36;;;;;;;0.60;0.60;;;13.60;99.90;;;;;;4944622;29;20257;-75
2021/05/20 05:39:05;;;;;;;0.60;0.60;;;13.50;99.90;;;;;;4950359;29;20206;-75
2021/05/20 05:41:33;;;;;;;0.50;0.50;;;13.20;99.90;;;;;;4944339;29;20301;-77
2021/05/20 05:44:00;;;;;;;0.60;0.60;;;13.20;99.90;;;;;;4945316;29;20664;-77
2021/05/20 05:46:28;;;;;;;0.60;0.60;;;13.10;99.90;;;;;;4943531;29;20206;-76
2021/05/20 05:49:00;;;;;;;0.60;0.60;;;13.20;99.90;;;;;;4936652;29;20205;-76
2021/05/20 05:51:30;;;;;;;0.60;0.60;;;13.30;99.90;;;;;;4936309;29;20276;-77
2021/05/20 05:53:58;;;;;;;0.60;0.60;;;13.30;99.90;;;;;;4936437;29;20262;-75
2021/05/20 05:56:26;;;;;;;0.60;0.60;;;13.50;99.90;;;;;;4936604;29;20278;-75
2021/05/20 05:59:13;;;;;;;0.50;0.50;;;13.60;99.90;;;;;;4936542;29;20334;-76
2021/05/20 06:01:41;;;;;;;0.50;0.50;;;13.70;99.90;;;;;;4936135;29;20715;-75
2021/05/20 06:04:09;;;;;;;0.63;0.63;;;13.80;99.90;;;;;;4936201;29;20237;-75
2021/05/20 06:06:37;;;;;;;0.60;0.60;;;13.90;99.90;;;;;;4936512;29;20214;-75
2021/05/20 06:09:06;;;;;;;0.60;0.60;;;13.90;99.90;;;;;;4936573;29;20633;-76
2021/05/20 06:11:34;;;;;;;0.70;0.70;;;14.00;99.90;;;;;;4936055;29;20233;-77
2021/05/20 06:14:04;;;;;;;0.60;0.60;;;14.00;99.90;;;;;;4936129;29;20671;-76
2021/05/20 06:16:34;;;;;;;0.60;0.60;;;14.10;99.90;;;;;;4935984;29;20242;-76
2021/05/20 06:19:02;;;;;;;0.60;0.60;;;14.30;99.90;;;;;;4936968;29;20205;-76
2021/05/20 06:21:30;;;;;;;0.60;0.60;;;14.20;99.90;;;;;;4936873;29;20256;-76
2021/05/20 06:23:57;;;;;;;0.60;0.60;;;14.20;99.90;;;;;;4936582;29;20206;-76
2021/05/20 06:26:25;;;;;;;0.60;0.60;;;14.40;99.90;;;;;;4936566;29;20218;-77
2021/05/20 06:28:53;;;;;;;0.60;0.60;;;14.30;99.90;;;;;;4936496;29;20625;-77
2021/05/20 06:31:21;;;;;;;0.60;0.60;;;14.30;99.90;;;;;;4936560;29;20297;-77
2021/05/20 06:33:48;;;;;;;0.60;0.60;;;14.20;99.90;;;;;;4935874;29;20216;-76
2021/05/20 06:36:16;;;;;;;0.60;0.60;;;14.00;99.90;;;;;;4936221;29;20267;-76
2021/05/20 06:38:44;;;;;;;0.70;0.70;;;13.40;99.90;;;;;;4935964;29;20206;-77
2021/05/20 06:41:12;;;;;;;0.70;0.70;;;13.50;99.90;;;;;;4936105;29;20663;-76
2021/05/20 06:43:39;;;;;;;0.60;0.60;;;13.50;99.90;;;;;;4936273;29;20214;-76
2021/05/20 06:46:08;;;;;;;0.60;0.60;;;13.60;99.90;;;;;;4935900;29;20296;-76
2021/05/20 06:48:36;;;;;;;0.55;0.55;;;13.90;99.90;;;;;;4936426;29;20257;-77
2021/05/20 06:51:04;;;;;;;0.65;0.65;;;14.00;99.90;;;;;;4936785;29;20226;-76
2021/05/20 06:53:32;;;;;;;0.70;0.70;;;13.90;99.90;;;;;;4936700;29;20252;-77
2021/05/20 06:56:01;;;;;;;0.70;0.70;;;13.90;99.90;;;;;;4937844;29;20206;-77
2021/05/20 07:01:15;;;;;;;0.60;0.60;;;14.20;99.90;;;;;;4935399;29;20277;-76
2021/05/20 07:03:44;;;;;;;0.70;0.70;;;14.40;99.90;;;;;;4935195;29;20206;-77
2021/05/20 07:06:12;;;;;;;0.70;0.70;;;14.50;99.90;;;;;;4935345;29;20202;-76
2021/05/20 07:08:40;;;;;;;0.70;0.70;;;14.40;99.90;;;;;;4935494;29;20206;-76
2021/05/20 07:11:07;;;;;;;0.60;0.60;;;14.70;99.90;;;;;;4934853;29;20703;-76
2021/05/20 07:13:35;;;;;;;0.65;0.65;;;14.50;99.90;;;;;;4935344;29;20269;-76
2021/05/20 07:16:04;;;;;;;0.60;0.60;;;14.60;99.90;;;;;;4935123;29;20257;-76
2021/05/20 07:18:32;;;;;;;0.60;0.60;;;14.60;99.90;;;;;;4935065;29;20206;-76
2021/05/20 07:20:59;;;;;;;0.60;0.60;;;14.80;99.90;;;;;;4934819;29;20254;-76
2021/05/20 07:23:27;;;;;;;0.60;0.60;;;14.90;99.90;;;;;;4934938;29;20214;-75
2021/05/20 07:25:55;;;;;;;0.60;0.60;;;15.10;99.90;;;;;;4934962;29;20269;-76
2021/05/20 07:28:22;;;;;;;0.60;0.60;;;15.00;99.90;;;;;;4935075;29;20265;-76
2021/05/20 07:30:50;;;;;;;0.50;0.50;;;15.10;99.90;;;;;;4934910;29;20648;-76
2021/05/20 07:33:17;;;;;;;0.60;0.60;;;15.30;99.90;;;;;;4934712;29;20260;-76
2021/05/20 07:35:45;;;;;;;0.50;0.50;;;15.50;99.90;;;;;;4934910;29;20257;-75
2021/05/20 07:38:13;;;;;;;0.50;0.50;;;15.30;99.90;;;;;;4935029;29;20824;-76
2021/05/20 07:40:40;;;;;;;0.60;0.60;;;15.30;99.90;;;;;;4934929;29;20222;-76
2021/05/20 07:43:07;;;;;;;0.60;0.60;;;15.30;99.90;;;;;;4934857;29;20628;-76
2021/05/20 07:45:35;;;;;;;0.60;0.60;;;15.30;99.90;;;;;;4934238;29;20442;-76
2021/05/20 07:48:02;;;;;;;0.50;0.50;;;15.40;99.90;;;;;;4935082;29;20554;-76
2021/05/20 07:50:30;;;;;;;0.50;0.50;;;15.80;99.90;;;;;;4935090;29;20206;-75
2021/05/20 07:52:59;;;;;;;0.50;0.50;;;15.50;99.90;;;;;;4935106;29;20267;-76
2021/05/20 07:55:26;;;;;;;0.60;0.60;;;15.40;99.90;;;;;;4934842;29;20206;-75
2021/05/20 07:57:54;;;;;;;0.60;0.60;;;15.60;99.90;;;;;;4935093;29;20202;-75
2021/05/20 08:00:22;;;;;;;0.60;0.60;;;15.20;99.90;;;;;;4935057;29;20210;-77
2021/05/20 08:02:52;;;;;;;0.50;0.50;;;15.50;99.90;;;;;;4936500;29;20213;-76
2021/05/20 08:05:26;;;;;;;0.52;0.52;;;15.50;99.90;;;;;;4941596;29;20206;-77
2021/05/20 08:07:58;;;;;;;0.50;0.50;;;15.60;99.90;;;;;;4938426;29;20195;-77
2021/05/20 08:13:20;;;;;;;0.60;0.60;;;15.20;99.90;;;;;;4936423;29;20206;-76
2021/05/20 08:15:48;;;;;;;0.50;0.50;;;15.50;99.90;;;;;;4958301;29;20198;-76
2021/05/20 08:18:16;;;;;;;0.52;0.52;;;15.50;99.90;;;;;;4936679;29;20214;-78
2021/05/20 08:20:43;;;;;;;0.60;0.60;;;15.40;99.90;;;;;;4937332;29;20230;-77
2021/05/20 08:23:11;;;;;;;0.70;0.70;;;15.50;99.90;;;;;;4937170;29;20213;-76
2021/05/20 08:25:39;;;;;;;0.60;0.60;;;15.30;99.90;;;;;;4938767;29;20289;-77
2021/05/20 08:28:07;;;;;;;0.60;0.60;;;15.20;99.90;;;;;;4935431;29;20281;-76
2021/05/20 08:30:34;;;;;;;0.60;0.60;;;15.60;99.90;;;;;;4935636;29;20308;-76
2021/05/20 08:33:02;;;;;;;0.50;0.50;;;15.80;99.90;;;;;;4935799;29;20202;-77
2021/05/20 08:35:30;;;;;;;0.60;0.60;;;15.60;99.90;;;;;;4935424;29;20241;-77
2021/05/20 08:37:57;;;;;;;0.60;0.60;;;15.80;99.90;;;;;;4935471;29;20214;-77
2021/05/20 08:40:26;;;;;;;0.60;0.60;;;15.90;99.90;;;;;;4935118;29;20202;-77
2021/05/20 08:42:54;;;;;;;0.60;0.60;;;15.90;99.90;;;;;;4935646;29;20206;-76
2021/05/20 08:45:24;;;;;;;0.60;0.60;;;16.00;99.90;;;;;;4935013;29;20261;-77
2021/05/20 08:47:54;;;;;;;0.55;0.55;;;16.30;99.90;;;;;;4935391;29;20217;-77
2021/05/20 08:50:23;;;;;;;0.50;0.50;;;16.70;99.90;;;;;;4934818;29;20671;-77
2021/05/20 08:52:51;;;;;;;0.60;0.60;;;16.60;99.90;;;;;;4935300;29;20226;-77
2021/05/20 08:55:20;;;;;;;0.60;0.60;;;16.30;99.40;;;;;;4935061;29;20230;-77
2021/05/20 08:57:48;;;;;;;0.40;0.40;;;16.30;99.50;;;;;;4938218;29;20206;-77
2021/05/20 09:00:18;;;;;;;0.60;0.60;;;16.10;99.90;;;;;;4938433;29;20209;-77
2021/05/20 09:02:46;;;;;;;0.40;0.40;;;16.10;99.50;;;;;;4938180;29;20245;-76
2021/05/20 09:05:17;;;;;;;0.60;0.60;;;16.20;99.60;;;;;;4937997;29;20233;-77
2021/05/20 09:07:48;;;;;;;0.60;0.60;;;16.40;98.40;;;;;;4938464;29;20202;-76
2021/05/20 09:10:21;;;;;;;0.60;0.60;;;16.10;99.90;;;;;;4937854;29;20190;-76
2021/05/20 09:12:50;;;;;;;0.60;0.60;;;16.10;99.00;;;;;;4938967;29;20207;-77
2021/05/20 09:15:25;;;;;;;0.40;0.40;;;16.10;99.30;;;;;;4938371;29;20205;-77
2021/05/20 09:17:53;;;;;;;0.50;0.50;;;16.10;99.10;;;;;;4939651;29;20196;-77
2021/05/20 09:20:26;;;;;;;0.50;0.50;;;15.90;99.90;;;;;;4938780;29;20210;-77
2021/05/20 09:23:03;;;;;;;0.50;0.50;;;15.90;98.90;;;;;;4937273;29;20214;-77
2021/05/20 09:25:32;;;;;;;0.40;0.40;;;16.00;98.40;;;;;;4937021;29;20722;-76
2021/05/20 09:28:00;;;;;;;0.50;0.50;;;15.80;97.90;;;;;;4937645;29;20227;-76
2021/05/20 09:30:29;;;;;;;0.50;0.50;;;16.00;99.90;;;;;;4937334;29;20253;-76
2021/05/20 09:32:59;;;;;;;0.60;0.60;;;15.80;98.70;;;;;;4937204;29;20218;-76
2021/05/20 09:35:27;;;;;;;0.50;0.50;;;16.10;98.90;;;;;;4936925;29;20679;-76
2021/05/20 09:38:01;;;;;;;0.50;0.50;;;16.40;98.50;;;;;;4937472;29;20212;-76
2021/05/20 09:40:32;;;;;;;0.40;0.40;;;16.50;99.90;;;;;;4937150;29;20194;-76
2021/05/20 09:43:00;;;;;;;0.50;0.50;;;16.60;99.00;;;;;;4936987;29;20226;-76
2021/05/20 09:45:29;;;;;;;0.50;0.50;;;16.70;99.00;;;;;;4936453;29;20210;-77
2021/05/20 09:48:04;;;;;;;0.40;0.40;;;16.50;97.40;;;;;;4937762;29;20209;-77
2021/05/20 09:50:37;;;;;;;0.50;0.50;;;17.20;97.40;;;;;;4937742;29;20237;-77
2021/05/20 09:53:12;;;;;;;0.50;0.50;;;17.10;96.40;;;;;;4937714;29;20262;-77
2021/05/20 09:55:46;;;;;;;0.60;0.60;;;16.80;95.90;;;;;;4940308;29;20526;-77
2021/05/20 09:58:14;;;;;;;0.60;0.60;;;16.60;96.40;;;;;;4939081;29;20210;-76
2021/05/20 10:00:43;;;;;;;0.50;0.50;;;16.40;97.30;;;;;;4938814;29;20253;-77
2021/05/20 10:03:12;;;;;;;0.60;0.60;;;16.30;97.60;;;;;;4938590;29;20727;-77
2021/05/20 10:05:40;;;;;;;0.50;0.50;;;16.30;97.70;;;;;;4938351;29;20208;-76
2021/05/20 10:08:09;;;;;;;0.60;0.60;;;16.50;98.10;;;;;;4938381;29;20206;-77
2021/05/20 10:10:39;;;;;;;0.60;0.60;;;16.40;97.40;;;;;;4938874;29;20237;-77
2021/05/20 10:13:08;;;;;;;0.50;0.50;;;16.20;98.00;;;;;;4938462;29;20277;-76
2021/05/20 10:15:37;;;;;;;0.60;0.60;;;16.30;98.20;;;;;;4938058;29;20206;-76
2021/05/20 10:18:07;;;;;;;0.60;0.60;;;16.20;97.80;;;;;;4938332;29;20375;-76
2021/05/20 10:20:35;;;;;;;0.60;0.60;;;16.00;98.40;;;;;;4938243;29;20268;-77
2021/05/20 10:23:08;;;;;;;0.50;0.50;;;15.90;95.90;;;;;;4975224;23;20253;-78
2021/05/20 10:25:36;;;;;;;0.60;0.60;;;15.70;96.40;;;;;;4999505;28;20286;-78
2021/05/20 10:28:06;;;;;;;0.57;0.57;;;15.70;96.90;;;;;;5000671;28;20444;-77
2021/05/20 10:30:35;;;;;;;0.60;0.60;;;15.70;97.50;;;;;;5000125;28;20254;-77
2021/05/20 10:33:03;;;;;;;0.65;0.65;;;15.70;97.80;;;;;;4997528;28;20255;-81
2021/05/20 10:35:41;;;;;;;0.60;0.60;;;15.80;98.10;;;;;;4996883;28;20251;-80
2021/05/20 10:38:09;;;;;;;0.60;0.60;;;16.00;96.60;;;;;;4996990;28;20204;-78
2021/05/20 10:40:36;;;;;;;0.50;0.50;;;16.10;96.50;;;;;;4997939;28;20231;-78
2021/05/20 10:43:06;;;;;;;0.50;0.50;;;16.20;95.70;;;;;;4997572;28;20278;-77
2021/05/20 10:45:34;;;;;;;0.50;0.50;;;16.10;96.30;;;;;;4997325;28;20251;-79
2021/05/20 10:48:24;;;;;;;0.50;0.50;;;16.30;96.70;;;;;;4996134;28;20693;-79
2021/05/20 10:51:21;;;;;;;0.50;0.50;;;16.30;96.90;;;;;;4985419;28;20201;-79
2021/05/20 10:53:55;;;;;;;0.60;0.60;;;16.50;97.00;;;;;;4985335;28;20212;-80
2021/05/20 10:56:57;;;;;;;0.52;0.52;;;16.40;97.10;;;;;;4985166;28;20205;-77
2021/05/20 10:59:42;;;;;;;0.40;0.40;;;16.40;97.00;;;;;;4987541;28;20204;-80
2021/05/20 11:02:32;;;;;;;0.40;0.40;;;16.50;96.70;;;;;;4989498;28;20188;-78
2021/05/20 11:04:59;;;;;;;0.50;0.50;;;16.70;95.10;;;;;;4991277;28;20196;-77
2021/05/20 11:07:33;;;;;;;0.40;0.40;;;16.90;95.50;;;;;;4987174;28;20196;-78
2021/05/20 11:10:12;;;;;;;0.50;0.50;;;16.80;95.30;;;;;;4982113;28;20296;-78
2021/05/20 11:12:57;;;;;;;0.40;0.40;;;16.90;99.90;;;;;;4975337;28;20315;-78
2021/05/20 11:15:25;;;;;;;0.50;0.50;;;17.00;94.10;;;;;;4974729;28;20673;-79
2021/05/20 11:17:52;;;;;;;0.40;0.40;;;16.70;93.50;;;;;;4975383;28;20852;-79
2021/05/20 11:20:30;;;;;;;0.50;0.50;;;17.00;93.50;;;;;;4985135;28;20246;-79
2021/05/20 11:23:22;;;;;;;0.40;0.40;;;16.90;93.80;;;;;;4992216;28;20224;-79
2021/05/20 11:26:22;;;;;;;0.50;0.50;;;16.90;99.90;;;;;;4990161;28;20260;-77
2021/05/20 11:28:57;;;;;;;0.50;0.50;;;17.00;93.20;;;;;;4977796;28;20599;-79
2021/05/20 11:31:26;;;;;;;0.50;0.50;;;16.70;89.50;;;;;;4991284;28;20208;-78
2021/05/20 11:34:11;;;;;;;0.60;0.60;;;16.30;91.50;;;;;;4994160;28;20255;-79
2021/05/20 11:36:40;;;;;;;0.60;0.60;;;16.00;93.30;;;;;;4988457;28;20185;-78
2021/05/20 11:39:11;;;;;;;0.50;0.50;;;16.00;94.50;;;;;;4994087;28;20199;-79
2021/05/20 11:41:43;;;;;;;0.50;0.50;;;15.90;93.30;;;;;;4993772;28;20205;-79
2021/05/20 11:44:13;;;;;;;0.40;0.40;;;16.20;93.70;;;;;;4990310;28;20267;-79
2021/05/20 11:46:42;;;;;;;0.50;0.50;;;16.40;94.10;;;;;;4991117;28;20199;-77
2021/05/20 11:49:21;;;;;;;0.40;0.40;;;16.40;94.50;;;;;;4988091;28;20197;-79
2021/05/20 11:51:52;;;;;;;0.40;0.40;;;16.80;94.20;;;;;;4990322;28;20652;-79
2021/05/20 11:54:22;;;;;;;0.50;0.50;;;16.90;92.90;;;;;;4993868;28;20260;-77
2021/05/20 11:56:53;;;;;;;0.40;0.40;;;16.90;92.80;;;;;;4986730;28;20196;-79
2021/05/20 11:59:41;;;;;;;0.50;0.50;;;16.70;92.70;;;;;;4990047;28;20200;-77
2021/05/20 12:02:11;;;;;;;0.40;0.40;;;16.50;93.50;;;;;;4977523;28;20193;-78
2021/05/20 12:04:38;;;;;;;0.50;0.50;;;16.50;93.40;;;;;;4978130;28;20224;-79
2021/05/20 12:07:07;;;;;;;0.50;0.50;;;16.60;93.60;;;;;;4980097;28;20228;-78
2021/05/20 12:09:35;;;;;;;0.60;0.60;;;16.60;94.50;;;;;;4993463;28;20200;-79
2021/05/20 12:12:09;;;;;;;0.40;0.40;;;16.60;94.30;;;;;;4996898;28;20228;-79
2021/05/20 12:14:37;;;;;;;0.40;0.40;;;16.70;94.30;;;;;;4997340;28;20232;-79
2021/05/20 12:17:07;;;;;;;0.50;0.50;;;16.80;94.30;;;;;;4988322;28;20197;-80
2021/05/20 12:19:44;;;;;;;0.40;0.40;;;17.10;94.50;;;;;;4977849;28;20260;-79
2021/05/20 12:22:14;;;;;;;0.50;0.50;;;17.60;93.00;;;;;;4978199;28;20304;-80
2021/05/20 12:24:44;;;;;;;0.50;0.50;;;18.10;91.90;;;;;;4991305;28;20239;-80
2021/05/20 12:27:17;;;;;;;0.50;0.50;;;18.20;91.70;;;;;;4999091;28;20204;-78
2021/05/20 12:29:46;;;;;;;0.40;0.40;;;17.90;92.00;;;;;;4989561;28;20220;-76
2021/05/20 12:32:31;;;;;;;0.50;0.50;;;17.70;92.90;;;;;;5000533;28;20685;-76
2021/05/20 12:35:18;;;;;;;0.50;0.50;;;17.40;94.30;;;;;;5003667;28;20282;-77
2021/05/20 12:37:49;;;;;;;0.40;0.40;;;17.30;94.10;;;;;;5005742;28;20207;-80
2021/05/20 12:40:20;;;;;;;0.50;0.50;;;16.80;93.80;;;;;;5005159;28;20609;-79
2021/05/20 12:43:08;;;;;;;0.50;0.50;;;17.00;95.10;;;;;;5001914;28;20242;-81
2021/05/20 12:45:39;;;;;;;0.40;0.40;;;17.30;94.40;;;;;;4996358;28;20224;-81
2021/05/20 12:48:30;;;;;;;0.40;0.40;;;17.40;93.40;;;;;;4992231;28;20199;-81
2021/05/20 12:51:00;;;;;;;0.52;0.52;;;17.60;93.10;;;;;;4991880;28;20677;-79
2021/05/20 12:53:31;;;;;;;0.50;0.50;;;18.30;92.60;;;;;;4987871;28;20221;-79
2021/05/20 12:56:04;;;;;;;0.40;0.40;;;18.90;93.40;;;;;;4990677;28;20201;-77
2021/05/20 12:58:52;;;;;;;0.40;0.40;;;19.90;90.20;;;;;;4990086;28;20267;-78
2021/05/20 13:01:20;;;;;;;0.30;0.30;;;20.30;86.20;;;;;;4990771;28;20196;-79
2021/05/20 13:03:49;;;;;;;0.40;0.40;;;20.00;84.80;;;;;;4989511;28;20213;-80
2021/05/20 13:06:24;;;;;;;0.40;0.40;;;19.50;86.20;;;;;;4988094;28;20204;-80
2021/05/20 13:08:52;;;;;;;0.40;0.40;;;19.00;81.60;;;;;;4988641;28;20250;-79
2021/05/20 13:11:25;;;;;;;0.40;0.40;;;18.80;82.00;;;;;;4993955;28;20235;-79
2021/05/20 13:13:53;;;;;;;0.50;0.50;;;19.10;80.70;;;;;;4982773;28;20228;-78
2021/05/20 13:16:33;;;;;;;0.50;0.50;;;19.70;77.80;;;;;;4976896;28;20209;-76
2021/05/20 13:22:20;;;;;;;0.50;0.50;;;19.70;77.00;;;;;;4950883;28;20677;-76
2021/05/20 13:25:08;;;;;;;0.30;0.30;;;19.90;77.30;;;;;;4977297;28;20242;-76
2021/05/20 13:27:37;;;;;;;0.40;0.40;;;20.00;76.90;;;;;;4986661;28;20227;-77
2021/05/20 13:30:11;;;;;;;0.40;0.40;;;20.00;76.90;;;;;;4993827;28;20207;-77
2021/05/20 13:32:42;;;;;;;0.30;0.30;;;19.70;88.90;;;;;;4993015;28;20219;-77
2021/05/20 13:35:12;;;;;;;0.40;0.40;;;19.70;76.70;;;;;;4992492;28;20262;-77
2021/05/20 13:37:39;;;;;;;0.30;0.30;;;19.70;78.30;;;;;;4992831;28;20580;-76
2021/05/20 13:40:14;;;;;;;0.30;0.30;;;19.70;78.20;;;;;;4992904;28;20204;-77
2021/05/20 13:42:42;;;;;;;0.40;0.40;;;19.40;87.80;;;;;;4991749;28;20250;-77
2021/05/20 13:45:11;;;;;;;0.40;0.40;;;19.30;76.40;;;;;;4993064;28;20200;-77
2021/05/20 13:47:39;;;;;;;0.43;0.43;;;19.20;79.00;;;;;;4994213;28;20208;-77
2021/05/20 13:50:07;;;;;;;0.50;0.50;;;18.70;78.80;;;;;;4984179;28;20278;-71
2021/05/20 13:52:38;;;;;;;0.40;0.40;;;18.30;92.40;;;;;;4980946;28;20771;-74
2021/05/20 13:55:07;;;;;;;0.40;0.40;;;18.20;81.80;;;;;;4983954;28;20259;-76
2021/05/20 13:57:34;;;;;;;0.50;0.50;;;17.90;81.30;;;;;;4984364;28;20620;-77
2021/05/20 14:00:05;;;;;;;0.57;0.57;;;17.80;82.10;;;;;;4985063;28;20200;-77
2021/05/20 14:02:34;;;;;;;0.50;0.50;;;17.90;93.50;;;;;;4983327;28;20197;-74
2021/05/20 14:05:01;;;;;;;0.40;0.40;;;18.10;84.00;;;;;;4981352;28;20243;-77
2021/05/20 14:07:29;;;;;;;0.30;0.30;;;18.80;82.80;;;;;;4981954;28;20204;-77
2021/05/20 14:09:57;;;;;;;0.40;0.40;;;19.60;82.30;;;;;;4975191;28;20216;-77
2021/05/20 14:12:24;;;;;;;0.40;0.40;;;19.70;90.70;;;;;;4974519;28;20204;-77
2021/05/20 14:14:52;;;;;;;0.30;0.30;;;19.50;78.30;;;;;;4983663;28;20244;-78
2021/05/20 14:17:21;;;;;;;0.30;0.30;;;19.30;78.60;;;;;;4989205;28;20251;-78
2021/05/20 14:19:51;;;;;;;0.40;0.40;;;19.20;79.70;;;;;;4990900;28;20211;-77
2021/05/20 14:22:20;;;;;;;0.50;0.50;;;19.00;79.70;;;;;;4990712;28;20204;-78
2021/05/20 14:24:49;;;;;;;0.50;0.50;;;18.70;80.20;;;;;;4987384;28;20204;-75
2021/05/20 14:27:18;;;;;;;0.50;0.50;;;18.50;91.10;;;;;;4997192;28;20200;-77
2021/05/20 14:29:49;;;;;;;0.40;0.40;;;18.50;82.90;;;;;;5008224;28;20203;-76
2021/05/20 14:32:19;;;;;;;0.40;0.40;;;18.30;80.20;;;;;;5004943;28;20204;-77
2021/05/20 14:34:49;;;;;;;0.40;0.40;;;18.20;80.40;;;;;;4990502;28;20228;-78
2021/05/20 14:37:16;;;;;;;0.50;0.50;;;18.00;79.00;;;;;;4989899;28;20206;-78
2021/05/20 14:39:46;;;;;;;0.40;0.40;;;18.00;80.10;;;;;;4987864;28;20201;-78
2021/05/20 14:42:14;;;;;;;0.40;0.40;;;17.80;78.60;;;;;;4986784;28;20209;-76
2021/05/20 14:44:43;;;;;;;0.40;0.40;;;17.60;80.50;;;;;;4978734;28;20233;-77
2021/05/20 14:47:10;;;;;;;0.50;0.50;;;17.50;82.00;;;;;;4976969;28;20204;-77
2021/05/20 14:49:40;;;;;;;0.40;0.40;;;17.30;82.80;;;;;;4976382;28;20205;-76
2021/05/20 14:52:12;;;;;;;0.40;0.40;;;17.20;84.40;;;;;;4975323;28;20235;-77
2021/05/20 14:54:43;;;;;;;0.50;0.50;;;17.00;87.00;;;;;;4977580;28;20221;-77
2021/05/20 14:57:25;;;;;;;0.40;0.40;;;16.80;89.10;;;;;;4974748;28;20748;-77
2021/05/20 15:05:22;;;;;;;0.50;0.50;;;15.50;95.50;;;;;;4941707;28;20263;-77
2021/05/20 15:07:50;;;;;;;0.60;0.60;;;15.30;97.70;;;;;;4984903;28;20250;-77
2021/05/20 15:10:21;;;;;;;0.60;0.60;;;15.30;99.90;;;;;;4991013;28;20255;-77
2021/05/20 15:12:55;;;;;;;0.60;0.60;;;15.40;99.90;;;;;;4978722;28;20220;-78
2021/05/20 15:15:29;;;;;;;0.60;0.60;;;15.90;99.90;;;;;;4976822;28;20321;-77
2021/05/20 15:17:59;;;;;;;0.50;0.50;;;16.20;99.50;;;;;;4983614;28;20600;-77
2021/05/20 15:20:28;;;;;;;0.50;0.50;;;16.60;98.70;;;;;;4983674;28;20203;-77
2021/05/20 15:23:00;;;;;;;0.52;0.52;;;16.90;99.20;;;;;;4983584;28;20240;-77
2021/05/20 15:25:29;;;;;;;0.50;0.50;;;17.10;96.30;;;;;;4982028;28;20563;-77
2021/05/20 15:27:58;;;;;;;0.40;0.40;;;17.00;96.40;;;;;;4983718;28;20223;-76
2021/05/20 15:30:26;;;;;;;0.50;0.50;;;17.00;97.00;;;;;;4984513;28;20657;-77
2021/05/20 15:32:54;;;;;;;0.40;0.40;;;16.90;96.10;;;;;;4981637;28;20213;-78
2021/05/20 15:35:21;;;;;;;0.40;0.40;;;16.90;95.20;;;;;;4980897;28;20201;-77
2021/05/20 15:37:50;;;;;;;0.40;0.40;;;16.90;95.00;;;;;;4983759;28;20812;-78
2021/05/20 15:40:19;;;;;;;0.40;0.40;;;17.00;94.70;;;;;;4995538;28;20257;-77
2021/05/20 15:42:47;;;;;;;0.45;0.45;;;17.10;93.80;;;;;;4993579;28;20223;-77
2021/05/20 15:45:15;;;;;;;0.50;0.50;;;17.20;93.00;;;;;;4993862;28;20195;-77
2021/05/20 15:47:47;;;;;;;0.50;0.50;;;17.50;94.10;;;;;;4993101;28;20207;-77
2021/05/20 15:50:16;;;;;;;0.40;0.40;;;17.40;92.50;;;;;;4982695;28;20260;-77
2021/05/20 15:52:47;;;;;;;0.40;0.40;;;17.50;92.60;;;;;;4982172;28;20602;-77
2021/05/20 15:55:17;;;;;;;0.40;0.40;;;17.60;92.50;;;;;;4998162;28;20224;-79
2021/05/20 15:57:46;;;;;;;0.50;0.50;;;17.60;91.90;;;;;;4997209;28;20263;-76
2021/05/20 16:00:17;;;;;;;0.40;0.40;;;17.90;91.80;;;;;;4990671;28;20207;-77
2021/05/20 16:02:45;;;;;;;0.30;0.30;;;18.10;92.70;;;;;;4976317;28;20229;-79
2021/05/20 16:05:15;;;;;;;0.50;0.50;;;17.90;91.10;;;;;;4978232;28;20200;-78
2021/05/20 16:07:48;;;;;;;0.30;0.30;;;17.80;90.40;;;;;;4980552;28;20212;-78
2021/05/20 16:10:34;;;;;;;0.30;0.30;;;17.80;92.10;;;;;;4982010;28;20209;-78
2021/05/20 16:15:48;;;;;;;0.50;0.50;;;18.00;90.90;;;;;;4978298;28;20216;-77
2021/05/20 16:18:15;;;;;;;0.40;0.40;;;18.20;87.40;;;;;;4979749;28;20204;-76
2021/05/20 16:20:44;;;;;;;0.40;0.40;;;18.30;87.00;;;;;;4981827;28;20204;-78
2021/05/20 16:23:17;;;;;;;0.40;0.40;;;18.50;94.90;;;;;;5003752;23;20238;-76
2021/05/20 16:26:03;;;;;;;0.50;0.50;;;18.70;86.00;;;;;;4948764;29;20209;-76
2021/05/20 16:33:46;;;;;;;0.30;0.30;;;18.80;83.30;;;;;;4960029;29;20264;-78
2021/05/20 16:37:02;;;;;;;0.30;0.30;;;20.70;72.90;;;;;;4939596;29;20202;-78
2021/05/20 16:39:29;;;;;;;0.30;0.30;;;20.80;72.20;;;;;;4934862;29;20252;-77
2021/05/20 16:41:57;;;;;;;0.40;0.40;;;20.80;72.80;;;;;;4940433;29;20218;-75
2021/05/20 16:44:29;;;;;;;0.50;0.50;;;20.60;73.10;;;;;;4945709;29;20304;-77
2021/05/20 16:47:16;;;;;;;0.40;0.40;;;20.20;74.10;;;;;;4945480;29;20575;-77
2021/05/20 16:49:43;;;;;;;0.30;0.30;;;20.00;73.90;;;;;;4948637;28;20202;-77
2021/05/20 16:52:12;;;;;;;0.40;0.40;;;20.30;74.10;;;;;;4950040;28;20224;-78
2021/05/20 16:54:50;;;;;;;0.40;0.40;;;20.70;73.90;;;;;;4956255;29;20264;-78
2021/05/20 16:57:27;;;;;;;0.30;0.30;;;20.60;71.60;;;;;;4953912;29;20209;-77
2021/05/20 16:59:55;;;;;;;0.30;0.30;;;20.70;71.30;;;;;;4948127;29;20249;-78
2021/05/20 17:02:24;;;;;;;0.30;0.30;;;20.80;70.70;;;;;;4940400;28;20229;-77
2021/05/20 17:04:53;;;;;;;0.40;0.40;;;20.90;70.30;;;;;;4931818;29;20262;-78
2021/05/20 17:07:20;;;;;;;0.30;0.30;;;20.60;70.80;;;;;;4929908;29;20213;-78
2021/05/20 17:09:53;;;;;;;0.30;0.30;;;20.10;71.90;;;;;;4933723;29;20226;-77
2021/05/20 17:12:20;;;;;;;0.30;0.30;;;19.60;73.60;;;;;;4938052;29;20245;-76
2021/05/20 17:14:48;;;;;;;0.30;0.30;;;19.30;74.90;;;;;;4937730;29;20276;-77
2021/05/20 17:17:16;;;;;;;0.30;0.30;;;18.90;76.40;;;;;;4936252;29;20198;-77
2021/05/20 17:19:44;;;;;;;0.40;0.40;;;18.80;77.50;;;;;;4923441;29;20261;-75
2021/05/20 17:22:12;;;;;;;0.40;0.40;;;18.80;76.50;;;;;;4920150;29;20626;-77
2021/05/20 17:24:39;;;;;;;0.50;0.50;;;20.10;77.30;;;;;;4923685;29;20219;-77
2021/05/20 17:27:07;;;;;;;0.40;0.40;;;19.30;85.60;;;;;;4936883;29;20265;-75
2021/05/20 17:29:35;;;;;;;0.50;0.50;;;20.00;75.30;;;;;;4938520;29;20258;-77
2021/05/20 17:32:04;;;;;;;0.40;0.40;;;20.30;73.80;;;;;;4937975;29;20205;-76
2021/05/20 17:34:32;;;;;;;0.40;0.40;;;20.00;76.30;;;;;;4937711;29;20281;-77
2021/05/20 17:36:59;;;;;;;0.40;0.40;;;20.20;77.10;;;;;;4938091;29;20214;-77
2021/05/20 17:39:30;;;;;;;0.30;0.30;;;20.20;77.60;;;;;;4937940;29;20261;-76